sensor_id;sensor_type;location;lat;lon;timestamp;P1;durP1;ratioP1;P2;durP2;ratioP2
16979;SDS011;42288;52.182;21.156;2024-03-02T00:00:07;51.17;;;24.77;;
16979;SDS011;42288;52.182;21.156;2024-03-02T00:02:45;53.60;;;26.97;;
16979;SDS011;42288;52.182;21.156;2024-03-02T00:05:12;55.37;;;25.20;;
16979;SDS011;42288;52.182;21.156;2024-03-02T00:07:41;48.13;;;23.63;;
16979;SDS011;42288;52.182;21.156;2024-03-02T00:10:08;54.17;;;25.93;;
16979;SDS011;42288;52.182;21.156;2024-03-02T00:12:36;58.97;;;25.47;;
16979;SDS011;42288;52.182;21.156;2024-03-02T00:15:06;51.47;;;23.73;;
16979;SDS011;42288;52.182;21.156;2024-03-02T00:17:57;50.47;;;23.70;;
16979;SDS011;42288;52.182;21.156;2024-03-02T00:20:24;55.37;;;25.33;;
16979;SDS011;42288;52.182;21.156;2024-03-02T00:22:52;51.90;;;25.57;;
16979;SDS011;42288;52.182;21.156;2024-03-02T00:25:27;62.10;;;26.63;;
16979;SDS011;42288;52.182;21.156;2024-03-02T00:28:02;52.30;;;22.83;;
16979;SDS011;42288;52.182;21.156;2024-03-02T00:33:11;60.20;;;25.73;;
16979;SDS011;42288;52.182;21.156;2024-03-02T00:35:37;55.77;;;25.60;;
16979;SDS011;42288;52.182;21.156;2024-03-02T00:38:06;57.33;;;25.33;;
16979;SDS011;42288;52.182;21.156;2024-03-02T00:40:32;46.37;;;25.03;;
16979;SDS011;42288;52.182;21.156;2024-03-02T00:42:58;52.73;;;24.93;;
16979;SDS011;42288;52.182;21.156;2024-03-02T00:45:25;64.27;;;25.73;;
16979;SDS011;42288;52.182;21.156;2024-03-02T00:47:51;51.67;;;25.07;;
16979;SDS011;42288;52.182;21.156;2024-03-02T00:50:17;53.73;;;24.30;;
16979;SDS011;42288;52.182;21.156;2024-03-02T00:52:43;50.17;;;24.73;;
16979;SDS011;42288;52.182;21.156;2024-03-02T00:55:09;48.93;;;23.00;;
16979;SDS011;42288;52.182;21.156;2024-03-02T00:57:35;54.27;;;24.20;;
16979;SDS011;42288;52.182;21.156;2024-03-02T01:00:01;46.53;;;24.40;;
16979;SDS011;42288;52.182;21.156;2024-03-02T01:02:28;48.87;;;23.50;;
16979;SDS011;42288;52.182;21.156;2024-03-02T01:04:54;51.33;;;24.90;;
16979;SDS011;42288;52.182;21.156;2024-03-02T01:07:20;47.90;;;24.10;;
16979;SDS011;42288;52.182;21.156;2024-03-02T01:09:46;48.27;;;22.93;;
16979;SDS011;42288;52.182;21.156;2024-03-02T01:12:11;59.40;;;25.53;;
16979;SDS011;42288;52.182;21.156;2024-03-02T01:14:37;57.87;;;24.80;;
16979;SDS011;42288;52.182;21.156;2024-03-02T01:17:03;49.30;;;23.40;;
16979;SDS011;42288;52.182;21.156;2024-03-02T01:19:29;47.00;;;21.77;;
16979;SDS011;42288;52.182;21.156;2024-03-02T01:21:55;58.53;;;25.30;;
16979;SDS011;42288;52.182;21.156;2024-03-02T01:24:21;52.17;;;24.93;;
16979;SDS011;42288;52.182;21.156;2024-03-02T01:26:47;51.77;;;24.23;;
16979;SDS011;42288;52.182;21.156;2024-03-02T01:29:13;54.77;;;23.90;;
16979;SDS011;42288;52.182;21.156;2024-03-02T01:31:38;49.53;;;23.00;;
16979;SDS011;42288;52.182;21.156;2024-03-02T01:34:07;51.57;;;22.83;;
16979;SDS011;42288;52.182;21.156;2024-03-02T01:36:33;54.13;;;24.47;;
16979;SDS011;42288;52.182;21.156;2024-03-02T01:38:59;41.27;;;20.13;;
16979;SDS011;42288;52.182;21.156;2024-03-02T01:41:25;47.77;;;22.23;;
16979;SDS011;42288;52.182;21.156;2024-03-02T01:43:51;45.83;;;22.07;;
16979;SDS011;42288;52.182;21.156;2024-03-02T01:46:17;50.07;;;24.83;;
16979;SDS011;42288;52.182;21.156;2024-03-02T01:48:43;49.77;;;21.57;;
16979;SDS011;42288;52.182;21.156;2024-03-02T01:51:08;44.80;;;21.97;;
16979;SDS011;42288;52.182;21.156;2024-03-02T01:53:35;47.23;;;21.90;;
16979;SDS011;42288;52.182;21.156;2024-03-02T01:56:01;48.13;;;21.60;;
16979;SDS011;42288;52.182;21.156;2024-03-02T01:58:27;43.87;;;22.33;;
16979;SDS011;42288;52.182;21.156;2024-03-02T02:00:53;49.23;;;22.23;;
16979;SDS011;42288;52.182;21.156;2024-03-02T02:03:19;49.33;;;23.23;;
16979;SDS011;42288;52.182;21.156;2024-03-02T02:05:44;48.73;;;22.67;;
16979;SDS011;42288;52.182;21.156;2024-03-02T02:08:12;44.80;;;20.50;;
16979;SDS011;42288;52.182;21.156;2024-03-02T02:10:38;48.40;;;22.70;;
16979;SDS011;42288;52.182;21.156;2024-03-02T02:13:04;44.33;;;20.90;;
16979;SDS011;42288;52.182;21.156;2024-03-02T02:15:30;43.97;;;21.57;;
16979;SDS011;42288;52.182;21.156;2024-03-02T02:17:57;49.30;;;20.70;;
16979;SDS011;42288;52.182;21.156;2024-03-02T02:20:23;42.00;;;21.23;;
16979;SDS011;42288;52.182;21.156;2024-03-02T02:22:59;43.07;;;21.20;;
16979;SDS011;42288;52.182;21.156;2024-03-02T02:25:30;43.27;;;20.80;;
16979;SDS011;42288;52.182;21.156;2024-03-02T02:27:56;43.67;;;21.43;;
16979;SDS011;42288;52.182;21.156;2024-03-02T02:30:24;46.90;;;19.63;;
16979;SDS011;42288;52.182;21.156;2024-03-02T02:32:50;48.23;;;22.23;;
16979;SDS011;42288;52.182;21.156;2024-03-02T02:35:16;41.13;;;20.63;;
16979;SDS011;42288;52.182;21.156;2024-03-02T02:37:42;45.07;;;20.93;;
16979;SDS011;42288;52.182;21.156;2024-03-02T02:40:08;56.63;;;24.10;;
16979;SDS011;42288;52.182;21.156;2024-03-02T02:42:34;45.93;;;22.07;;
16979;SDS011;42288;52.182;21.156;2024-03-02T02:45:00;42.27;;;21.13;;
16979;SDS011;42288;52.182;21.156;2024-03-02T02:47:26;44.20;;;19.97;;
16979;SDS011;42288;52.182;21.156;2024-03-02T02:49:52;45.20;;;20.43;;
16979;SDS011;42288;52.182;21.156;2024-03-02T02:52:18;43.20;;;20.47;;
16979;SDS011;42288;52.182;21.156;2024-03-02T02:54:44;45.23;;;21.97;;
16979;SDS011;42288;52.182;21.156;2024-03-02T02:57:09;44.33;;;22.17;;
16979;SDS011;42288;52.182;21.156;2024-03-02T02:59:35;40.00;;;20.77;;
16979;SDS011;42288;52.182;21.156;2024-03-02T03:02:02;43.90;;;19.77;;
16979;SDS011;42288;52.182;21.156;2024-03-02T03:04:27;48.33;;;21.30;;
16979;SDS011;42288;52.182;21.156;2024-03-02T03:06:53;43.60;;;21.70;;
16979;SDS011;42288;52.182;21.156;2024-03-02T03:09:18;47.27;;;21.30;;
16979;SDS011;42288;52.182;21.156;2024-03-02T03:11:44;40.03;;;19.67;;
16979;SDS011;42288;52.182;21.156;2024-03-02T03:14:10;44.10;;;20.33;;
16979;SDS011;42288;52.182;21.156;2024-03-02T03:16:35;43.87;;;21.37;;
16979;SDS011;42288;52.182;21.156;2024-03-02T03:19:01;40.60;;;21.30;;
16979;SDS011;42288;52.182;21.156;2024-03-02T03:21:27;46.67;;;21.47;;
16979;SDS011;42288;52.182;21.156;2024-03-02T03:23:52;51.83;;;21.67;;
16979;SDS011;42288;52.182;21.156;2024-03-02T03:26:18;46.37;;;22.53;;
16979;SDS011;42288;52.182;21.156;2024-03-02T03:28:44;44.17;;;20.73;;
16979;SDS011;42288;52.182;21.156;2024-03-02T03:31:09;51.00;;;21.57;;
16979;SDS011;42288;52.182;21.156;2024-03-02T03:33:35;41.27;;;19.93;;
16979;SDS011;42288;52.182;21.156;2024-03-02T03:36:01;42.57;;;19.60;;
16979;SDS011;42288;52.182;21.156;2024-03-02T03:38:28;45.70;;;20.57;;
16979;SDS011;42288;52.182;21.156;2024-03-02T03:40:54;43.43;;;19.97;;
16979;SDS011;42288;52.182;21.156;2024-03-02T03:43:20;50.73;;;22.57;;
16979;SDS011;42288;52.182;21.156;2024-03-02T03:45:45;44.10;;;21.57;;
16979;SDS011;42288;52.182;21.156;2024-03-02T03:48:11;43.10;;;20.47;;
16979;SDS011;42288;52.182;21.156;2024-03-02T03:50:37;39.57;;;20.17;;
16979;SDS011;42288;52.182;21.156;2024-03-02T03:53:03;46.23;;;20.97;;
16979;SDS011;42288;52.182;21.156;2024-03-02T03:55:29;48.17;;;22.20;;
16979;SDS011;42288;52.182;21.156;2024-03-02T03:57:54;50.57;;;22.37;;
16979;SDS011;42288;52.182;21.156;2024-03-02T04:00:20;50.27;;;22.50;;
16979;SDS011;42288;52.182;21.156;2024-03-02T04:02:46;47.63;;;22.77;;
16979;SDS011;42288;52.182;21.156;2024-03-02T04:05:11;39.97;;;21.93;;
16979;SDS011;42288;52.182;21.156;2024-03-02T04:07:37;44.00;;;21.77;;
16979;SDS011;42288;52.182;21.156;2024-03-02T04:10:09;43.80;;;22.53;;
16979;SDS011;42288;52.182;21.156;2024-03-02T04:12:38;49.27;;;22.17;;
16979;SDS011;42288;52.182;21.156;2024-03-02T04:15:06;47.90;;;21.80;;
16979;SDS011;42288;52.182;21.156;2024-03-02T04:17:33;48.23;;;23.13;;
16979;SDS011;42288;52.182;21.156;2024-03-02T04:20:00;51.00;;;21.50;;
16979;SDS011;42288;52.182;21.156;2024-03-02T04:22:27;57.17;;;23.20;;
16979;SDS011;42288;52.182;21.156;2024-03-02T04:24:53;49.97;;;23.80;;
16979;SDS011;42288;52.182;21.156;2024-03-02T04:27:19;57.23;;;23.63;;
16979;SDS011;42288;52.182;21.156;2024-03-02T04:29:45;46.77;;;23.63;;
16979;SDS011;42288;52.182;21.156;2024-03-02T04:32:10;58.80;;;24.33;;
16979;SDS011;42288;52.182;21.156;2024-03-02T04:34:36;51.50;;;23.10;;
16979;SDS011;42288;52.182;21.156;2024-03-02T04:37:02;53.07;;;23.00;;
16979;SDS011;42288;52.182;21.156;2024-03-02T04:39:27;56.10;;;24.20;;
16979;SDS011;42288;52.182;21.156;2024-03-02T04:41:53;45.07;;;21.87;;
16979;SDS011;42288;52.182;21.156;2024-03-02T04:44:19;49.97;;;22.87;;
16979;SDS011;42288;52.182;21.156;2024-03-02T04:46:45;39.60;;;19.33;;
16979;SDS011;42288;52.182;21.156;2024-03-02T04:49:10;40.60;;;19.97;;
16979;SDS011;42288;52.182;21.156;2024-03-02T04:51:36;44.93;;;19.97;;
16979;SDS011;42288;52.182;21.156;2024-03-02T04:54:02;44.60;;;22.17;;
16979;SDS011;42288;52.182;21.156;2024-03-02T04:56:27;44.83;;;21.30;;
16979;SDS011;42288;52.182;21.156;2024-03-02T04:58:56;54.77;;;21.17;;
16979;SDS011;42288;52.182;21.156;2024-03-02T05:01:21;46.93;;;21.23;;
16979;SDS011;42288;52.182;21.156;2024-03-02T05:03:47;44.60;;;20.37;;
16979;SDS011;42288;52.182;21.156;2024-03-02T05:06:12;48.93;;;21.33;;
16979;SDS011;42288;52.182;21.156;2024-03-02T05:08:38;46.67;;;21.50;;
16979;SDS011;42288;52.182;21.156;2024-03-02T05:11:04;52.33;;;22.80;;
16979;SDS011;42288;52.182;21.156;2024-03-02T05:13:48;39.37;;;20.83;;
16979;SDS011;42288;52.182;21.156;2024-03-02T05:16:14;45.47;;;19.30;;
16979;SDS011;42288;52.182;21.156;2024-03-02T05:18:39;41.63;;;20.80;;
16979;SDS011;42288;52.182;21.156;2024-03-02T05:21:05;45.43;;;21.80;;
16979;SDS011;42288;52.182;21.156;2024-03-02T05:23:30;51.17;;;21.17;;
16979;SDS011;42288;52.182;21.156;2024-03-02T05:25:56;48.33;;;20.70;;
16979;SDS011;42288;52.182;21.156;2024-03-02T05:28:22;41.47;;;19.23;;
16979;SDS011;42288;52.182;21.156;2024-03-02T05:30:47;40.07;;;19.87;;
16979;SDS011;42288;52.182;21.156;2024-03-02T05:33:14;39.97;;;19.03;;
16979;SDS011;42288;52.182;21.156;2024-03-02T05:35:40;49.70;;;21.87;;
16979;SDS011;42288;52.182;21.156;2024-03-02T05:38:05;41.23;;;19.77;;
16979;SDS011;42288;52.182;21.156;2024-03-02T05:40:31;45.43;;;19.33;;
16979;SDS011;42288;52.182;21.156;2024-03-02T05:42:57;41.03;;;17.73;;
16979;SDS011;42288;52.182;21.156;2024-03-02T05:45:22;47.47;;;20.00;;
16979;SDS011;42288;52.182;21.156;2024-03-02T05:47:48;40.73;;;19.23;;
16979;SDS011;42288;52.182;21.156;2024-03-02T05:50:14;55.10;;;21.30;;
16979;SDS011;42288;52.182;21.156;2024-03-02T05:52:39;41.60;;;18.10;;
16979;SDS011;42288;52.182;21.156;2024-03-02T05:55:05;42.33;;;19.43;;
16979;SDS011;42288;52.182;21.156;2024-03-02T05:57:31;40.27;;;17.93;;
16979;SDS011;42288;52.182;21.156;2024-03-02T06:00:06;45.33;;;18.93;;
16979;SDS011;42288;52.182;21.156;2024-03-02T06:02:33;50.13;;;20.80;;
16979;SDS011;42288;52.182;21.156;2024-03-02T06:05:01;41.43;;;18.00;;
16979;SDS011;42288;52.182;21.156;2024-03-02T06:07:26;43.17;;;19.40;;
16979;SDS011;42288;52.182;21.156;2024-03-02T06:09:52;46.40;;;19.47;;
16979;SDS011;42288;52.182;21.156;2024-03-02T06:12:18;45.37;;;20.13;;
16979;SDS011;42288;52.182;21.156;2024-03-02T06:14:44;45.67;;;19.47;;
16979;SDS011;42288;52.182;21.156;2024-03-02T06:17:09;41.93;;;19.87;;
16979;SDS011;42288;52.182;21.156;2024-03-02T06:19:35;41.27;;;20.73;;
16979;SDS011;42288;52.182;21.156;2024-03-02T06:22:01;42.10;;;19.37;;
16979;SDS011;42288;52.182;21.156;2024-03-02T06:24:26;48.20;;;19.67;;
16979;SDS011;42288;52.182;21.156;2024-03-02T06:26:52;43.03;;;19.83;;
16979;SDS011;42288;52.182;21.156;2024-03-02T06:29:18;48.83;;;20.63;;
16979;SDS011;42288;52.182;21.156;2024-03-02T06:31:44;37.03;;;17.63;;
16979;SDS011;42288;52.182;21.156;2024-03-02T06:34:09;43.20;;;20.00;;
16979;SDS011;42288;52.182;21.156;2024-03-02T06:36:35;41.30;;;18.37;;
16979;SDS011;42288;52.182;21.156;2024-03-02T06:39:01;39.03;;;19.40;;
16979;SDS011;42288;52.182;21.156;2024-03-02T06:41:26;43.10;;;19.33;;
16979;SDS011;42288;52.182;21.156;2024-03-02T06:43:52;42.03;;;18.27;;
16979;SDS011;42288;52.182;21.156;2024-03-02T06:46:24;36.73;;;17.83;;
16979;SDS011;42288;52.182;21.156;2024-03-02T06:48:50;38.80;;;18.07;;
16979;SDS011;42288;52.182;21.156;2024-03-02T06:51:16;47.50;;;20.17;;
16979;SDS011;42288;52.182;21.156;2024-03-02T06:53:42;39.17;;;18.73;;
16979;SDS011;42288;52.182;21.156;2024-03-02T06:56:07;37.97;;;16.37;;
16979;SDS011;42288;52.182;21.156;2024-03-02T06:58:34;38.77;;;19.20;;
16979;SDS011;42288;52.182;21.156;2024-03-02T07:01:00;44.33;;;19.67;;
16979;SDS011;42288;52.182;21.156;2024-03-02T07:03:25;40.07;;;18.60;;
16979;SDS011;42288;52.182;21.156;2024-03-02T07:05:51;45.73;;;18.27;;
16979;SDS011;42288;52.182;21.156;2024-03-02T07:08:17;43.60;;;18.93;;
16979;SDS011;42288;52.182;21.156;2024-03-02T07:10:43;40.93;;;19.40;;
16979;SDS011;42288;52.182;21.156;2024-03-02T07:13:09;39.70;;;16.87;;
16979;SDS011;42288;52.182;21.156;2024-03-02T07:15:34;34.57;;;17.17;;
16979;SDS011;42288;52.182;21.156;2024-03-02T07:18:19;45.83;;;17.63;;
16979;SDS011;42288;52.182;21.156;2024-03-02T07:20:45;33.10;;;15.73;;
16979;SDS011;42288;52.182;21.156;2024-03-02T07:23:10;39.50;;;18.60;;
16979;SDS011;42288;52.182;21.156;2024-03-02T07:25:36;37.23;;;17.63;;
16979;SDS011;42288;52.182;21.156;2024-03-02T07:28:02;38.20;;;17.23;;
16979;SDS011;42288;52.182;21.156;2024-03-02T07:30:29;40.20;;;15.97;;
16979;SDS011;42288;52.182;21.156;2024-03-02T07:32:55;41.53;;;18.17;;
16979;SDS011;42288;52.182;21.156;2024-03-02T07:35:20;32.40;;;17.13;;
16979;SDS011;42288;52.182;21.156;2024-03-02T07:37:47;36.23;;;16.73;;
16979;SDS011;42288;52.182;21.156;2024-03-02T07:40:13;38.13;;;17.47;;
16979;SDS011;42288;52.182;21.156;2024-03-02T07:42:39;43.73;;;18.13;;
16979;SDS011;42288;52.182;21.156;2024-03-02T07:45:06;32.10;;;17.10;;
16979;SDS011;42288;52.182;21.156;2024-03-02T07:47:35;36.43;;;17.50;;
16979;SDS011;42288;52.182;21.156;2024-03-02T07:50:02;43.80;;;18.97;;
16979;SDS011;42288;52.182;21.156;2024-03-02T07:52:31;38.73;;;18.37;;
16979;SDS011;42288;52.182;21.156;2024-03-02T07:54:57;34.77;;;17.77;;
16979;SDS011;42288;52.182;21.156;2024-03-02T07:57:23;44.40;;;17.27;;
16979;SDS011;42288;52.182;21.156;2024-03-02T07:59:48;36.07;;;16.77;;
16979;SDS011;42288;52.182;21.156;2024-03-02T08:02:14;42.20;;;17.93;;
16979;SDS011;42288;52.182;21.156;2024-03-02T08:04:40;39.87;;;16.83;;
16979;SDS011;42288;52.182;21.156;2024-03-02T08:07:06;36.43;;;16.37;;
16979;SDS011;42288;52.182;21.156;2024-03-02T08:09:35;40.70;;;17.53;;
16979;SDS011;42288;52.182;21.156;2024-03-02T08:12:04;40.83;;;17.77;;
16979;SDS011;42288;52.182;21.156;2024-03-02T08:14:33;41.63;;;17.13;;
16979;SDS011;42288;52.182;21.156;2024-03-02T08:16:59;50.73;;;19.23;;
16979;SDS011;42288;52.182;21.156;2024-03-02T08:19:26;36.93;;;17.57;;
16979;SDS011;42288;52.182;21.156;2024-03-02T08:21:52;38.10;;;15.60;;
16979;SDS011;42288;52.182;21.156;2024-03-02T08:24:18;35.90;;;16.27;;
16979;SDS011;42288;52.182;21.156;2024-03-02T08:26:43;38.73;;;17.27;;
16979;SDS011;42288;52.182;21.156;2024-03-02T08:29:09;41.43;;;17.10;;
16979;SDS011;42288;52.182;21.156;2024-03-02T08:31:35;43.70;;;19.13;;
16979;SDS011;42288;52.182;21.156;2024-03-02T08:34:00;41.30;;;17.70;;
16979;SDS011;42288;52.182;21.156;2024-03-02T08:36:27;36.97;;;17.17;;
16979;SDS011;42288;52.182;21.156;2024-03-02T08:38:53;41.13;;;17.53;;
16979;SDS011;42288;52.182;21.156;2024-03-02T08:41:18;37.47;;;17.87;;
16979;SDS011;42288;52.182;21.156;2024-03-02T08:43:44;41.63;;;18.03;;
16979;SDS011;42288;52.182;21.156;2024-03-02T08:46:10;43.03;;;17.90;;
16979;SDS011;42288;52.182;21.156;2024-03-02T08:48:36;38.97;;;17.47;;
16979;SDS011;42288;52.182;21.156;2024-03-02T08:51:01;39.50;;;18.10;;
16979;SDS011;42288;52.182;21.156;2024-03-02T08:53:29;40.17;;;17.33;;
16979;SDS011;42288;52.182;21.156;2024-03-02T08:55:57;43.20;;;15.87;;
16979;SDS011;42288;52.182;21.156;2024-03-02T08:58:22;39.50;;;17.97;;
16979;SDS011;42288;52.182;21.156;2024-03-02T09:00:48;39.73;;;18.07;;
16979;SDS011;42288;52.182;21.156;2024-03-02T09:03:14;44.40;;;19.50;;
16979;SDS011;42288;52.182;21.156;2024-03-02T09:05:40;46.87;;;18.00;;
16979;SDS011;42288;52.182;21.156;2024-03-02T09:08:05;33.97;;;17.03;;
16979;SDS011;42288;52.182;21.156;2024-03-02T09:10:31;37.73;;;17.17;;
16979;SDS011;42288;52.182;21.156;2024-03-02T09:12:58;40.30;;;16.87;;
16979;SDS011;42288;52.182;21.156;2024-03-02T09:15:23;30.50;;;15.80;;
16979;SDS011;42288;52.182;21.156;2024-03-02T09:17:49;39.00;;;17.33;;
16979;SDS011;42288;52.182;21.156;2024-03-02T09:20:15;36.70;;;16.93;;
16979;SDS011;42288;52.182;21.156;2024-03-02T09:22:41;40.00;;;18.00;;
16979;SDS011;42288;52.182;21.156;2024-03-02T09:25:07;42.50;;;17.63;;
16979;SDS011;42288;52.182;21.156;2024-03-02T09:27:36;39.73;;;17.43;;
16979;SDS011;42288;52.182;21.156;2024-03-02T09:30:02;46.30;;;18.30;;
16979;SDS011;42288;52.182;21.156;2024-03-02T09:32:30;39.13;;;17.10;;
16979;SDS011;42288;52.182;21.156;2024-03-02T09:34:56;45.03;;;17.50;;
16979;SDS011;42288;52.182;21.156;2024-03-02T09:37:23;49.07;;;18.73;;
16979;SDS011;42288;52.182;21.156;2024-03-02T09:39:49;40.80;;;19.57;;
16979;SDS011;42288;52.182;21.156;2024-03-02T09:42:14;42.57;;;18.27;;
16979;SDS011;42288;52.182;21.156;2024-03-02T09:44:40;44.17;;;18.90;;
16979;SDS011;42288;52.182;21.156;2024-03-02T09:47:07;38.73;;;17.17;;
16979;SDS011;42288;52.182;21.156;2024-03-02T09:49:33;42.20;;;18.13;;
16979;SDS011;42288;52.182;21.156;2024-03-02T09:52:00;47.33;;;19.13;;
16979;SDS011;42288;52.182;21.156;2024-03-02T09:54:26;43.17;;;18.23;;
16979;SDS011;42288;52.182;21.156;2024-03-02T09:56:51;41.73;;;19.47;;
16979;SDS011;42288;52.182;21.156;2024-03-02T09:59:17;39.03;;;17.87;;
16979;SDS011;42288;52.182;21.156;2024-03-02T10:02:18;39.70;;;18.33;;
16979;SDS011;42288;52.182;21.156;2024-03-02T10:04:37;39.57;;;17.87;;
16979;SDS011;42288;52.182;21.156;2024-03-02T10:07:12;45.53;;;19.37;;
16979;SDS011;42288;52.182;21.156;2024-03-02T10:09:41;36.13;;;17.50;;
16979;SDS011;42288;52.182;21.156;2024-03-02T10:12:08;42.10;;;18.93;;
16979;SDS011;42288;52.182;21.156;2024-03-02T10:14:35;40.30;;;17.97;;
16979;SDS011;42288;52.182;21.156;2024-03-02T10:19:30;46.93;;;19.17;;
16979;SDS011;42288;52.182;21.156;2024-03-02T10:21:58;42.53;;;18.97;;
16979;SDS011;42288;52.182;21.156;2024-03-02T10:24:24;44.17;;;19.00;;
16979;SDS011;42288;52.182;21.156;2024-03-02T10:26:51;38.57;;;18.53;;
16979;SDS011;42288;52.182;21.156;2024-03-02T10:29:17;42.50;;;18.87;;
16979;SDS011;42288;52.182;21.156;2024-03-02T10:31:44;43.53;;;20.10;;
16979;SDS011;42288;52.182;21.156;2024-03-02T10:34:11;40.07;;;18.27;;
16979;SDS011;42288;52.182;21.156;2024-03-02T10:36:38;44.90;;;19.33;;
16979;SDS011;42288;52.182;21.156;2024-03-02T10:39:06;37.67;;;18.07;;
16979;SDS011;42288;52.182;21.156;2024-03-02T10:41:34;42.53;;;19.80;;
16979;SDS011;42288;52.182;21.156;2024-03-02T10:44:05;44.97;;;20.63;;
16979;SDS011;42288;52.182;21.156;2024-03-02T10:46:32;42.70;;;20.37;;
16979;SDS011;42288;52.182;21.156;2024-03-02T10:49:00;45.33;;;22.47;;
16979;SDS011;42288;52.182;21.156;2024-03-02T10:51:27;44.00;;;20.27;;
16979;SDS011;42288;52.182;21.156;2024-03-02T10:53:56;46.33;;;20.60;;
16979;SDS011;42288;52.182;21.156;2024-03-02T10:58:55;38.57;;;18.80;;
16979;SDS011;42288;52.182;21.156;2024-03-02T11:01:29;49.07;;;21.93;;
16979;SDS011;42288;52.182;21.156;2024-03-02T11:03:57;48.03;;;22.07;;
16979;SDS011;42288;52.182;21.156;2024-03-02T11:06:25;48.03;;;23.97;;
16979;SDS011;42288;52.182;21.156;2024-03-02T11:08:53;53.80;;;24.13;;
16979;SDS011;42288;52.182;21.156;2024-03-02T11:11:25;50.27;;;23.20;;
16979;SDS011;42288;52.182;21.156;2024-03-02T11:13:54;43.83;;;21.67;;
16979;SDS011;42288;52.182;21.156;2024-03-02T11:16:31;44.83;;;23.23;;
16979;SDS011;42288;52.182;21.156;2024-03-02T11:19:04;48.97;;;23.53;;
16979;SDS011;42288;52.182;21.156;2024-03-02T11:21:34;46.83;;;22.27;;
16979;SDS011;42288;52.182;21.156;2024-03-02T11:26:49;46.97;;;22.10;;
16979;SDS011;42288;52.182;21.156;2024-03-02T11:32:01;49.47;;;24.23;;
16979;SDS011;42288;52.182;21.156;2024-03-02T11:34:31;43.73;;;23.93;;
16979;SDS011;42288;52.182;21.156;2024-03-02T11:37:00;53.27;;;25.03;;
16979;SDS011;42288;52.182;21.156;2024-03-02T11:39:27;57.17;;;26.07;;
16979;SDS011;42288;52.182;21.156;2024-03-02T11:41:54;43.90;;;23.87;;
16979;SDS011;42288;52.182;21.156;2024-03-02T11:44:21;50.20;;;22.80;;
16979;SDS011;42288;52.182;21.156;2024-03-02T11:46:51;52.20;;;23.83;;
16979;SDS011;42288;52.182;21.156;2024-03-02T11:49:41;49.67;;;23.60;;
16979;SDS011;42288;52.182;21.156;2024-03-02T11:52:08;53.13;;;24.47;;
16979;SDS011;42288;52.182;21.156;2024-03-02T11:54:35;47.00;;;24.80;;
16979;SDS011;42288;52.182;21.156;2024-03-02T11:57:04;51.63;;;24.50;;
16979;SDS011;42288;52.182;21.156;2024-03-02T11:59:31;46.30;;;23.37;;
16979;SDS011;42288;52.182;21.156;2024-03-02T12:01:57;50.13;;;23.27;;
16979;SDS011;42288;52.182;21.156;2024-03-02T12:04:24;44.40;;;23.60;;
16979;SDS011;42288;52.182;21.156;2024-03-02T12:06:54;52.60;;;22.10;;
16979;SDS011;42288;52.182;21.156;2024-03-02T12:09:21;50.03;;;24.30;;
16979;SDS011;42288;52.182;21.156;2024-03-02T12:11:47;51.67;;;25.27;;
16979;SDS011;42288;52.182;21.156;2024-03-02T12:14:13;44.43;;;22.40;;
16979;SDS011;42288;52.182;21.156;2024-03-02T12:16:46;52.20;;;23.00;;
16979;SDS011;42288;52.182;21.156;2024-03-02T12:19:12;48.10;;;22.37;;
16979;SDS011;42288;52.182;21.156;2024-03-02T12:21:40;41.03;;;20.63;;
16979;SDS011;42288;52.182;21.156;2024-03-02T12:24:08;49.37;;;24.00;;
16979;SDS011;42288;52.182;21.156;2024-03-02T12:26:34;47.50;;;23.03;;
16979;SDS011;42288;52.182;21.156;2024-03-02T12:29:00;39.93;;;22.70;;
16979;SDS011;42288;52.182;21.156;2024-03-02T12:31:26;49.07;;;25.17;;
16979;SDS011;42288;52.182;21.156;2024-03-02T12:33:51;45.13;;;23.37;;
16979;SDS011;42288;52.182;21.156;2024-03-02T12:36:18;46.87;;;23.57;;
16979;SDS011;42288;52.182;21.156;2024-03-02T12:38:44;46.40;;;23.00;;
16979;SDS011;42288;52.182;21.156;2024-03-02T12:41:10;41.07;;;22.47;;
16979;SDS011;42288;52.182;21.156;2024-03-02T12:43:35;44.63;;;23.83;;
16979;SDS011;42288;52.182;21.156;2024-03-02T12:46:03;48.07;;;23.73;;
16979;SDS011;42288;52.182;21.156;2024-03-02T12:48:29;46.47;;;23.53;;
16979;SDS011;42288;52.182;21.156;2024-03-02T12:50:54;46.97;;;25.23;;
16979;SDS011;42288;52.182;21.156;2024-03-02T12:53:21;53.03;;;24.07;;
16979;SDS011;42288;52.182;21.156;2024-03-02T12:55:47;51.03;;;23.60;;
16979;SDS011;42288;52.182;21.156;2024-03-02T12:58:18;54.67;;;23.40;;
16979;SDS011;42288;52.182;21.156;2024-03-02T13:00:46;45.30;;;24.27;;
16979;SDS011;42288;52.182;21.156;2024-03-02T13:03:12;55.73;;;25.90;;
16979;SDS011;42288;52.182;21.156;2024-03-02T13:05:38;56.77;;;28.67;;
16979;SDS011;42288;52.182;21.156;2024-03-02T13:08:05;59.37;;;27.73;;
16979;SDS011;42288;52.182;21.156;2024-03-02T13:10:32;54.20;;;25.50;;
16979;SDS011;42288;52.182;21.156;2024-03-02T13:12:58;49.97;;;23.57;;
16979;SDS011;42288;52.182;21.156;2024-03-02T13:15:27;55.47;;;25.37;;
16979;SDS011;42288;52.182;21.156;2024-03-02T13:17:53;50.93;;;24.27;;
16979;SDS011;42288;52.182;21.156;2024-03-02T13:20:18;47.10;;;23.03;;
16979;SDS011;42288;52.182;21.156;2024-03-02T13:22:45;51.60;;;25.23;;
16979;SDS011;42288;52.182;21.156;2024-03-02T13:25:10;55.53;;;25.07;;
16979;SDS011;42288;52.182;21.156;2024-03-02T13:27:36;48.07;;;23.87;;
16979;SDS011;42288;52.182;21.156;2024-03-02T13:30:02;54.13;;;25.13;;
16979;SDS011;42288;52.182;21.156;2024-03-02T13:32:30;63.70;;;27.10;;
16979;SDS011;42288;52.182;21.156;2024-03-02T13:34:56;64.10;;;27.77;;
16979;SDS011;42288;52.182;21.156;2024-03-02T13:37:22;51.83;;;25.07;;
16979;SDS011;42288;52.182;21.156;2024-03-02T13:39:48;53.67;;;25.53;;
16979;SDS011;42288;52.182;21.156;2024-03-02T13:42:14;48.33;;;23.60;;
16979;SDS011;42288;52.182;21.156;2024-03-02T13:44:40;55.13;;;24.47;;
16979;SDS011;42288;52.182;21.156;2024-03-02T13:47:10;57.40;;;26.53;;
16979;SDS011;42288;52.182;21.156;2024-03-02T13:49:36;46.80;;;23.23;;
16979;SDS011;42288;52.182;21.156;2024-03-02T13:52:05;44.97;;;22.70;;
16979;SDS011;42288;52.182;21.156;2024-03-02T13:54:42;48.67;;;23.17;;
16979;SDS011;42288;52.182;21.156;2024-03-02T13:57:09;53.13;;;26.10;;
16979;SDS011;42288;52.182;21.156;2024-03-02T13:59:35;48.87;;;24.23;;
16979;SDS011;42288;52.182;21.156;2024-03-02T14:02:02;50.13;;;24.53;;
16979;SDS011;42288;52.182;21.156;2024-03-02T14:04:30;43.50;;;21.90;;
16979;SDS011;42288;52.182;21.156;2024-03-02T14:06:56;46.17;;;25.10;;
16979;SDS011;42288;52.182;21.156;2024-03-02T14:09:22;66.60;;;28.27;;
16979;SDS011;42288;52.182;21.156;2024-03-02T14:11:49;58.73;;;26.53;;
16979;SDS011;42288;52.182;21.156;2024-03-02T14:14:16;51.30;;;25.33;;
16979;SDS011;42288;52.182;21.156;2024-03-02T14:16:42;50.27;;;23.87;;
16979;SDS011;42288;52.182;21.156;2024-03-02T14:19:10;59.43;;;25.67;;